sensor_id;sensor_type;location;lat;lon;timestamp;pressure;altitude;pressure_sealevel;temperature;humidity
10618;BME280;5356;43.526;26.534;2023-04-23T00:00:47;99195.53;;;9.17;100.00
10618;BME280;5356;43.526;26.534;2023-04-23T00:03:13;99196.53;;;9.16;100.00
10618;BME280;5356;43.526;26.534;2023-04-23T00:05:39;99188.41;;;9.05;100.00
10618;BME280;5356;43.526;26.534;2023-04-23T00:08:07;99191.88;;;9.12;100.00
10618;BME280;5356;43.526;26.534;2023-04-23T00:10:34;99188.13;;;9.19;100.00
10618;BME280;5356;43.526;26.534;2023-04-23T00:13:00;99193.88;;;9.23;100.00
10618;BME280;5356;43.526;26.534;2023-04-23T00:15:26;99179.53;;;9.24;100.00
10618;BME280;5356;43.526;26.534;2023-04-23T00:17:52;99188.31;;;9.25;100.00
10618;BME280;5356;43.526;26.534;2023-04-23T00:20:17;99191.38;;;9.28;100.00
10618;BME280;5356;43.526;26.534;2023-04-23T00:22:43;99185.25;;;9.28;100.00
10618;BME280;5356;43.526;26.534;2023-04-23T00:25:09;99187.31;;;9.26;100.00
10618;BME280;5356;43.526;26.534;2023-04-23T00:27:35;99181.00;;;9.20;100.00
10618;BME280;5356;43.526;26.534;2023-04-23T00:30:01;99172.59;;;9.16;100.00
10618;BME280;5356;43.526;26.534;2023-04-23T00:32:27;99165.47;;;9.10;100.00
10618;BME280;5356;43.526;26.534;2023-04-23T00:34:53;99171.84;;;9.09;100.00
10618;BME280;5356;43.526;26.534;2023-04-23T00:37:19;99176.72;;;9.06;100.00
10618;BME280;5356;43.526;26.534;2023-04-23T00:39:45;99175.34;;;9.03;100.00
10618;BME280;5356;43.526;26.534;2023-04-23T00:42:24;99175.91;;;9.05;100.00
10618;BME280;5356;43.526;26.534;2023-04-23T00:44:50;99173.88;;;9.07;100.00
10618;BME280;5356;43.526;26.534;2023-04-23T00:47:17;99171.25;;;9.01;100.00
10618;BME280;5356;43.526;26.534;2023-04-23T00:49:45;99180.66;;;8.96;100.00
10618;BME280;5356;43.526;26.534;2023-04-23T00:52:11;99175.56;;;8.95;100.00
10618;BME280;5356;43.526;26.534;2023-04-23T00:54:37;99178.44;;;8.87;100.00
10618;BME280;5356;43.526;26.534;2023-04-23T00:57:02;99182.31;;;8.91;100.00
10618;BME280;5356;43.526;26.534;2023-04-23T00:59:29;99176.38;;;8.89;100.00
10618;BME280;5356;43.526;26.534;2023-04-23T01:01:55;99179.44;;;8.86;100.00
10618;BME280;5356;43.526;26.534;2023-04-23T01:04:23;99178.03;;;8.90;100.00
10618;BME280;5356;43.526;26.534;2023-04-23T01:06:52;99174.38;;;8.77;100.00
10618;BME280;5356;43.526;26.534;2023-04-23T01:09:19;99177.69;;;8.66;100.00
10618;BME280;5356;43.526;26.534;2023-04-23T01:11:46;99178.50;;;8.67;100.00
10618;BME280;5356;43.526;26.534;2023-04-23T01:14:11;99183.16;;;8.71;100.00
10618;BME280;5356;43.526;26.534;2023-04-23T01:16:37;99180.09;;;8.74;100.00
10618;BME280;5356;43.526;26.534;2023-04-23T01:19:08;99178.06;;;8.76;100.00
10618;BME280;5356;43.526;26.534;2023-04-23T01:21:37;99170.28;;;8.82;100.00
10618;BME280;5356;43.526;26.534;2023-04-23T01:24:06;99181.31;;;8.79;100.00
10618;BME280;5356;43.526;26.534;2023-04-23T01:26:33;99178.06;;;8.76;100.00
10618;BME280;5356;43.526;26.534;2023-04-23T01:28:59;99177.63;;;8.80;100.00
10618;BME280;5356;43.526;26.534;2023-04-23T01:31:28;99170.31;;;8.75;100.00
10618;BME280;5356;43.526;26.534;2023-04-23T01:33:54;99171.94;;;8.76;100.00
10618;BME280;5356;43.526;26.534;2023-04-23T01:36:22;99174.19;;;8.72;100.00
10618;BME280;5356;43.526;26.534;2023-04-23T01:38:48;99176.84;;;8.72;100.00
10618;BME280;5356;43.526;26.534;2023-04-23T01:41:14;99176.22;;;8.70;100.00
10618;BME280;5356;43.526;26.534;2023-04-23T01:43:43;99176.66;;;8.67;100.00
10618;BME280;5356;43.526;26.534;2023-04-23T01:46:08;99172.78;;;8.57;100.00
10618;BME280;5356;43.526;26.534;2023-04-23T01:48:35;99174.00;;;8.54;100.00
10618;BME280;5356;43.526;26.534;2023-04-23T01:51:01;99178.91;;;8.57;100.00
10618;BME280;5356;43.526;26.534;2023-04-23T01:53:27;99170.31;;;8.62;100.00
10618;BME280;5356;43.526;26.534;2023-04-23T01:55:54;99174.19;;;8.66;100.00
10618;BME280;5356;43.526;26.534;2023-04-23T01:58:20;99179.72;;;8.64;100.00
10618;BME280;5356;43.526;26.534;2023-04-23T02:00:47;99172.16;;;8.61;100.00
10618;BME280;5356;43.526;26.534;2023-04-23T02:03:13;99175.03;;;8.60;100.00
10618;BME280;5356;43.526;26.534;2023-04-23T02:05:39;99171.97;;;8.56;100.00
10618;BME280;5356;43.526;26.534;2023-04-23T02:08:05;99180.94;;;8.62;100.00
10618;BME280;5356;43.526;26.534;2023-04-23T02:10:32;99179.72;;;8.64;100.00
10618;BME280;5356;43.526;26.534;2023-04-23T02:12:58;99179.72;;;8.64;100.00
10618;BME280;5356;43.526;26.534;2023-04-23T02:18:27;99174.00;;;8.54;100.00
10618;BME280;5356;43.526;26.534;2023-04-23T02:20:54;99171.16;;;8.49;100.00
10618;BME280;5356;43.526;26.534;2023-04-23T02:23:20;99173.59;;;8.50;100.00
10618;BME280;5356;43.526;26.534;2023-04-23T02:25:46;99180.97;;;8.48;100.00
10618;BME280;5356;43.526;26.534;2023-04-23T02:28:11;99181.19;;;8.47;100.00
10618;BME280;5356;43.526;26.534;2023-04-23T02:30:38;99173.81;;;8.42;100.00
10618;BME280;5356;43.526;26.534;2023-04-23T02:33:09;99178.50;;;8.33;100.00
10618;BME280;5356;43.526;26.534;2023-04-23T02:35:35;99177.47;;;8.35;100.00
10618;BME280;5356;43.526;26.534;2023-04-23T02:38:00;99175.63;;;8.28;100.00
10618;BME280;5356;43.526;26.534;2023-04-23T02:40:25;99175.44;;;8.30;100.00
10618;BME280;5356;43.526;26.534;2023-04-23T02:42:51;99180.53;;;8.31;100.00
10618;BME280;5356;43.526;26.534;2023-04-23T02:45:16;99176.88;;;8.32;100.00
10618;BME280;5356;43.526;26.534;2023-04-23T02:47:42;99176.66;;;8.34;100.00
10618;BME280;5356;43.526;26.534;2023-04-23T02:50:07;99178.09;;;8.30;100.00
10618;BME280;5356;43.526;26.534;2023-04-23T02:52:33;99176.88;;;8.32;100.00
10618;BME280;5356;43.526;26.534;2023-04-23T02:55:00;99183.81;;;8.33;100.00
10618;BME280;5356;43.526;26.534;2023-04-23T02:57:27;99177.88;;;8.31;100.00
10618;BME280;5356;43.526;26.534;2023-04-23T02:59:53;99180.53;;;8.31;100.00
10618;BME280;5356;43.526;26.534;2023-04-23T03:02:18;99175.22;;;8.31;100.00
10618;BME280;5356;43.526;26.534;2023-04-23T03:04:44;99183.19;;;8.31;100.00
10618;BME280;5356;43.526;26.534;2023-04-23T03:07:09;99176.03;;;8.32;100.00
10618;BME280;5356;43.526;26.534;2023-04-23T03:09:37;99184.63;;;8.27;100.00
10618;BME280;5356;43.526;26.534;2023-04-23T03:12:03;99184.00;;;8.25;100.00
10618;BME280;5356;43.526;26.534;2023-04-23T03:14:28;99186.47;;;8.27;100.00
10618;BME280;5356;43.526;26.534;2023-04-23T03:16:54;99191.56;;;8.28;100.00
10618;BME280;5356;43.526;26.534;2023-04-23T03:19:19;99191.56;;;8.28;100.00
10618;BME280;5356;43.526;26.534;2023-04-23T03:21:44;99200.13;;;8.30;100.00
10618;BME280;5356;43.526;26.534;2023-04-23T03:24:12;99190.34;;;8.24;100.00
10618;BME280;5356;43.526;26.534;2023-04-23T03:26:38;99196.47;;;8.18;100.00
10618;BME280;5356;43.526;26.534;2023-04-23T03:29:04;99194.41;;;8.20;100.00
10618;BME280;5356;43.526;26.534;2023-04-23T03:31:30;99197.69;;;8.22;100.00
10618;BME280;5356;43.526;26.534;2023-04-23T03:33:55;99202.16;;;8.15;100.00
10618;BME280;5356;43.526;26.534;2023-04-23T03:36:21;99200.53;;;8.14;100.00
10618;BME280;5356;43.526;26.534;2023-04-23T03:38:46;99202.59;;;8.19;100.00
10618;BME280;5356;43.526;26.534;2023-04-23T03:41:12;99205.84;;;8.14;100.00
10618;BME280;5356;43.526;26.534;2023-04-23T03:43:37;99204.63;;;8.17;100.00
10618;BME280;5356;43.526;26.534;2023-04-23T03:46:03;99199.91;;;8.12;100.00
10618;BME280;5356;43.526;26.534;2023-04-23T03:48:28;99205.03;;;8.14;100.00
10618;BME280;5356;43.526;26.534;2023-04-23T03:50:53;99199.91;;;8.05;100.00
10618;BME280;5356;43.526;26.534;2023-04-23T03:53:19;99215.84;;;8.12;100.00
10618;BME280;5356;43.526;26.534;2023-04-23T03:55:45;99211.75;;;8.23;100.00
10618;BME280;5356;43.526;26.534;2023-04-23T03:58:11;99208.72;;;8.19;100.00
10618;BME280;5356;43.526;26.534;2023-04-23T04:00:37;99214.84;;;8.13;100.00
10618;BME280;5356;43.526;26.534;2023-04-23T04:03:02;99221.75;;;8.14;100.00
10618;BME280;5356;43.526;26.534;2023-04-23T04:05:28;99217.69;;;8.18;100.00
10618;BME280;5356;43.526;26.534;2023-04-23T04:07:55;99218.72;;;8.10;100.00
10618;BME280;5356;43.526;26.534;2023-04-23T04:10:20;99225.63;;;8.12;100.00
10618;BME280;5356;43.526;26.534;2023-04-23T04:12:45;99219.50;;;8.18;100.00
10618;BME280;5356;43.526;26.534;2023-04-23T04:15:13;99227.69;;;8.23;100.00
10618;BME280;5356;43.526;26.534;2023-04-23T04:17:38;99229.94;;;8.19;100.00
10618;BME280;5356;43.526;26.534;2023-04-23T04:20:09;99238.53;;;8.21;100.00
10618;BME280;5356;43.526;26.534;2023-04-23T04:22:35;99236.47;;;8.23;100.00
10618;BME280;5356;43.526;26.534;2023-04-23T04:25:00;99231.16;;;8.23;100.00
10618;BME280;5356;43.526;26.534;2023-04-23T04:27:26;99234.44;;;8.19;100.00
10618;BME280;5356;43.526;26.534;2023-04-23T04:29:51;99241.16;;;8.15;100.00
10618;BME280;5356;43.526;26.534;2023-04-23T04:32:17;99236.06;;;8.26;100.00
10618;BME280;5356;43.526;26.534;2023-04-23T04:34:43;99243.22;;;8.32;100.00
10618;BME280;5356;43.526;26.534;2023-04-23T04:37:08;99240.19;;;8.42;100.00
10618;BME280;5356;43.526;26.534;2023-04-23T04:39:35;99243.25;;;8.46;100.00
10618;BME280;5356;43.526;26.534;2023-04-23T04:42:02;99240.16;;;8.49;100.00
10618;BME280;5356;43.526;26.534;2023-04-23T04:44:28;99244.25;;;8.38;100.00
10618;BME280;5356;43.526;26.534;2023-04-23T04:46:54;99248.38;;;8.41;100.00
10618;BME280;5356;43.526;26.534;2023-04-23T04:49:20;99243.44;;;8.51;100.00
10618;BME280;5356;43.526;26.534;2023-04-23T04:51:46;99246.31;;;8.69;100.00
10618;BME280;5356;43.526;26.534;2023-04-23T04:54:11;99245.06;;;8.92;100.00
10618;BME280;5356;43.526;26.534;2023-04-23T04:56:39;99243.81;;;9.01;100.00
10618;BME280;5356;43.526;26.534;2023-04-23T04:59:04;99256.06;;;9.09;100.00
10618;BME280;5356;43.526;26.534;2023-04-23T05:01:30;99261.78;;;9.12;100.00
10618;BME280;5356;43.526;26.534;2023-04-23T05:03:56;99256.03;;;9.15;100.00
10618;BME280;5356;43.526;26.534;2023-04-23T05:06:22;99252.16;;;9.18;100.00
10618;BME280;5356;43.526;26.534;2023-04-23T05:08:48;99263.56;;;9.32;100.00
10618;BME280;5356;43.526;26.534;2023-04-23T05:11:15;99269.31;;;9.74;100.00
10618;BME280;5356;43.526;26.534;2023-04-23T05:13:40;99268.69;;;9.78;100.00
10618;BME280;5356;43.526;26.534;2023-04-23T05:16:06;99263.63;;;9.63;100.00
10618;BME280;5356;43.526;26.534;2023-04-23T05:18:32;99260.78;;;9.58;100.00
10618;BME280;5356;43.526;26.534;2023-04-23T05:20:57;99259.56;;;9.61;100.00
10618;BME280;5356;43.526;26.534;2023-04-23T05:23:23;99261.75;;;9.71;100.00
10618;BME280;5356;43.526;26.534;2023-04-23T05:25:49;99258.66;;;9.74;100.00
10618;BME280;5356;43.526;26.534;2023-04-23T05:28:17;99259.47;;;9.81;100.00
10618;BME280;5356;43.526;26.534;2023-04-23T05:30:42;99259.91;;;10.91;100.00
10618;BME280;5356;43.526;26.534;2023-04-23T05:33:08;99257.97;;;11.90;100.00
10618;BME280;5356;43.526;26.534;2023-04-23T05:35:33;99260.69;;;12.14;100.00
10618;BME280;5356;43.526;26.534;2023-04-23T05:37:59;99259.06;;;11.83;100.00
10618;BME280;5356;43.526;26.534;2023-04-23T05:40:25;99254.97;;;11.50;100.00
10618;BME280;5356;43.526;26.534;2023-04-23T05:42:51;99264.09;;;11.24;100.00
10618;BME280;5356;43.526;26.534;2023-04-23T05:45:16;99266.84;;;10.92;100.00
10618;BME280;5356;43.526;26.534;2023-04-23T05:47:42;99265.22;;;10.91;100.00
10618;BME280;5356;43.526;26.534;2023-04-23T05:50:07;99268.66;;;10.98;100.00
10618;BME280;5356;43.526;26.534;2023-04-23T05:52:33;99264.50;;;11.02;100.00
10618;BME280;5356;43.526;26.534;2023-04-23T05:55:01;99267.84;;;11.16;100.00
10618;BME280;5356;43.526;26.534;2023-04-23T05:57:27;99260.38;;;11.25;100.00
10618;BME280;5356;43.526;26.534;2023-04-23T05:59:52;99258.53;;;11.44;100.00
10618;BME280;5356;43.526;26.534;2023-04-23T06:02:18;99253.69;;;11.53;100.00
10618;BME280;5356;43.526;26.534;2023-04-23T06:04:43;99250.63;;;11.67;100.00
10618;BME280;5356;43.526;26.534;2023-04-23T06:07:09;99260.91;;;11.82;100.00
10618;BME280;5356;43.526;26.534;2023-04-23T06:09:34;99258.41;;;11.87;100.00
10618;BME280;5356;43.526;26.534;2023-04-23T06:12:01;99261.41;;;12.09;100.00
10618;BME280;5356;43.526;26.534;2023-04-23T06:14:27;99255.75;;;12.18;100.00
10618;BME280;5356;43.526;26.534;2023-04-23T06:16:52;99256.91;;;12.33;100.00
10618;BME280;5356;43.526;26.534;2023-04-23T06:19:18;99262.06;;;12.47;100.00
10618;BME280;5356;43.526;26.534;2023-04-23T06:21:43;99258.94;;;12.62;100.00
10618;BME280;5356;43.526;26.534;2023-04-23T06:24:10;99254.19;;;12.75;100.00
10618;BME280;5356;43.526;26.534;2023-04-23T06:26:35;99262.31;;;12.92;100.00
10618;BME280;5356;43.526;26.534;2023-04-23T06:29:01;99254.88;;;13.06;100.00
10618;BME280;5356;43.526;26.534;2023-04-23T06:31:26;99258.13;;;13.20;100.00
10618;BME280;5356;43.526;26.534;2023-04-23T06:33:52;99255.00;;;13.35;100.00
10618;BME280;5356;43.526;26.534;2023-04-23T06:36:17;99250.88;;;13.44;100.00
10618;BME280;5356;43.526;26.534;2023-04-23T06:38:43;99255.66;;;13.54;100.00
10618;BME280;5356;43.526;26.534;2023-04-23T06:41:09;99252.94;;;13.65;100.00
10618;BME280;5356;43.526;26.534;2023-04-23T06:43:35;99259.31;;;13.76;100.00
10618;BME280;5356;43.526;26.534;2023-04-23T06:46:00;99249.78;;;13.97;100.00
10618;BME280;5356;43.526;26.534;2023-04-23T06:48:26;99257.09;;;14.02;100.00
10618;BME280;5356;43.526;26.534;2023-04-23T06:50:51;99254.44;;;14.19;100.00
10618;BME280;5356;43.526;26.534;2023-04-23T06:53:17;99258.09;;;14.46;100.00
10618;BME280;5356;43.526;26.534;2023-04-23T06:56:06;99259.88;;;14.69;100.00
10618;BME280;5356;43.526;26.534;2023-04-23T06:58:32;99254.06;;;14.94;100.00
10618;BME280;5356;43.526;26.534;2023-04-23T07:00:58;99250.38;;;15.17;100.00
10618;BME280;5356;43.526;26.534;2023-04-23T07:03:29;99253.97;;;15.28;100.00
10618;BME280;5356;43.526;26.534;2023-04-23T07:05:56;99252.50;;;15.37;100.00
10618;BME280;5356;43.526;26.534;2023-04-23T07:08:21;99252.13;;;15.50;100.00
10618;BME280;5356;43.526;26.534;2023-04-23T07:10:47;99249.84;;;15.64;100.00
10618;BME280;5356;43.526;26.534;2023-04-23T07:13:13;99257.31;;;15.79;98.08
10618;BME280;5356;43.526;26.534;2023-04-23T07:15:39;99256.41;;;15.96;94.40
10618;BME280;5356;43.526;26.534;2023-04-23T07:18:05;99254.41;;;16.08;90.09
10618;BME280;5356;43.526;26.534;2023-04-23T07:20:31;99251.03;;;16.23;88.08
10618;BME280;5356;43.526;26.534;2023-04-23T07:22:57;99254.06;;;16.31;84.88
10618;BME280;5356;43.526;26.534;2023-04-23T07:25:23;99253.91;;;16.43;84.52
10618;BME280;5356;43.526;26.534;2023-04-23T07:27:50;99257.22;;;16.55;81.98
10618;BME280;5356;43.526;26.534;2023-04-23T07:30:15;99260.84;;;16.71;81.91
10618;BME280;5356;43.526;26.534;2023-04-23T07:32:41;99255.72;;;16.70;75.48
10618;BME280;5356;43.526;26.534;2023-04-23T07:35:08;99262.47;;;16.72;75.95
10618;BME280;5356;43.526;26.534;2023-04-23T07:37:35;99256.44;;;16.87;74.60
10618;BME280;5356;43.526;26.534;2023-04-23T07:40:01;99261.53;;;16.89;73.15
10618;BME280;5356;43.526;26.534;2023-04-23T07:42:26;99265.03;;;16.89;71.12
10618;BME280;5356;43.526;26.534;2023-04-23T07:44:52;99264.63;;;17.08;70.04
10618;BME280;5356;43.526;26.534;2023-04-23T07:47:18;99262.81;;;17.18;67.19
10618;BME280;5356;43.526;26.534;2023-04-23T07:49:44;99262.75;;;17.13;64.57
10618;BME280;5356;43.526;26.534;2023-04-23T07:52:09;99265.78;;;17.22;66.17
10618;BME280;5356;43.526;26.534;2023-04-23T07:54:35;99253.44;;;17.31;67.08
10618;BME280;5356;43.526;26.534;2023-04-23T07:57:01;99257.53;;;17.44;65.26
10618;BME280;5356;43.526;26.534;2023-04-23T07:59:28;99258.09;;;17.51;64.27
10618;BME280;5356;43.526;26.534;2023-04-23T08:01:53;99248.50;;;17.76;65.70
10618;BME280;5356;43.526;26.534;2023-04-23T08:04:19;99243.44;;;17.89;65.72
10618;BME280;5356;43.526;26.534;2023-04-23T08:06:45;99239.13;;;17.93;62.65
10618;BME280;5356;43.526;26.534;2023-04-23T08:09:10;99243.41;;;17.79;59.85
10618;BME280;5356;43.526;26.534;2023-04-23T08:11:36;99250.41;;;17.80;59.12
10618;BME280;5356;43.526;26.534;2023-04-23T08:14:01;99244.81;;;18.07;61.33
10618;BME280;5356;43.526;26.534;2023-04-23T08:16:27;99245.91;;;18.22;61.95
10618;BME280;5356;43.526;26.534;2023-04-23T08:18:52;99244.81;;;18.23;61.56
10618;BME280;5356;43.526;26.534;2023-04-23T08:21:18;99238.66;;;18.37;61.02
10618;BME280;5356;43.526;26.534;2023-04-23T08:23:44;99248.88;;;18.51;61.98
10618;BME280;5356;43.526;26.534;2023-04-23T08:26:09;99243.22;;;18.52;59.16
10618;BME280;5356;43.526;26.534;2023-04-23T08:28:35;99243.22;;;18.57;59.44
10618;BME280;5356;43.526;26.534;2023-04-23T08:31:00;99238.91;;;18.51;58.70
10618;BME280;5356;43.526;26.534;2023-04-23T08:33:26;99241.31;;;18.68;58.82
10618;BME280;5356;43.526;26.534;2023-04-23T08:35:52;99241.34;;;18.58;56.93
10618;BME280;5356;43.526;26.534;2023-04-23T08:38:17;99235.66;;;18.65;56.07
10618;BME280;5356;43.526;26.534;2023-04-23T08:40:44;99228.34;;;18.65;54.73
10618;BME280;5356;43.526;26.534;2023-04-23T08:43:19;99232.19;;;18.74;54.83
10618;BME280;5356;43.526;26.534;2023-04-23T08:45:47;99232.13;;;18.84;54.50
10618;BME280;5356;43.526;26.534;2023-04-23T08:48:13;99223.78;;;18.86;54.66
10618;BME280;5356;43.526;26.534;2023-04-23T08:50:42;99221.59;;;18.98;54.34
10618;BME280;5356;43.526;26.534;2023-04-23T08:53:08;99217.22;;;19.07;54.31
10618;BME280;5356;43.526;26.534;2023-04-23T08:55:34;99217.22;;;19.13;53.58
10618;BME280;5356;43.526;26.534;2023-04-23T08:58:01;99222.06;;;19.16;52.79
10618;BME280;5356;43.526;26.534;2023-04-23T09:00:28;99222.06;;;19.16;52.27
10618;BME280;5356;43.526;26.534;2023-04-23T09:02:54;99215.84;;;19.20;51.40
10618;BME280;5356;43.526;26.534;2023-04-23T09:05:20;99216.06;;;19.34;52.15
10618;BME280;5356;43.526;26.534;2023-04-23T09:07:46;99216.84;;;19.45;51.84
10618;BME280;5356;43.526;26.534;2023-04-23T09:10:13;99222.50;;;19.48;51.12
10618;BME280;5356;43.526;26.534;2023-04-23T09:12:41;99217.66;;;19.40;50.47
10618;BME280;5356;43.526;26.534;2023-04-23T09:15:08;99217.69;;;19.30;50.07
10618;BME280;5356;43.526;26.534;2023-04-23T09:17:44;99215.22;;;19.44;50.31
10618;BME280;5356;43.526;26.534;2023-04-23T09:20:12;99210.88;;;19.48;50.11
10618;BME280;5356;43.526;26.534;2023-04-23T09:22:38;99203.03;;;19.51;48.63
10618;BME280;5356;43.526;26.534;2023-04-23T09:25:06;99201.94;;;19.47;48.35
10618;BME280;5356;43.526;26.534;2023-04-23T09:27:32;99205.41;;;19.68;48.84
10618;BME280;5356;43.526;26.534;2023-04-23T09:29:59;99198.59;;;19.76;48.63
10618;BME280;5356;43.526;26.534;2023-04-23T09:32:33;99197.66;;;19.96;48.70
10618;BME280;5356;43.526;26.534;2023-04-23T09:35:05;99197.53;;;20.11;48.56
10618;BME280;5356;43.526;26.534;2023-04-23T09:37:31;99199.03;;;20.28;48.44
10618;BME280;5356;43.526;26.534;2023-04-23T09:39:59;99199.56;;;20.30;47.96
10618;BME280;5356;43.526;26.534;2023-04-23T09:42:26;99201.38;;;20.39;47.32
10618;BME280;5356;43.526;26.534;2023-04-23T09:44:56;99198.09;;;20.42;46.89
10618;BME280;5356;43.526;26.534;2023-04-23T09:47:23;99197.75;;;20.49;47.00
10618;BME280;5356;43.526;26.534;2023-04-23T09:49:49;99203.84;;;20.70;46.90
10618;BME280;5356;43.526;26.534;2023-04-23T09:52:15;99193.69;;;20.52;45.50
10618;BME280;5356;43.526;26.534;2023-04-23T09:54:41;99186.03;;;20.64;46.07
10618;BME280;5356;43.526;26.534;2023-04-23T09:57:10;99189.09;;;20.81;45.94
10618;BME280;5356;43.526;26.534;2023-04-23T09:59:36;99170.72;;;20.78;44.30
10618;BME280;5356;43.526;26.534;2023-04-23T10:02:03;99182.88;;;20.81;45.17
10618;BME280;5356;43.526;26.534;2023-04-23T10:04:29;99175.09;;;20.98;45.19
10618;BME280;5356;43.526;26.534;2023-04-23T10:06:59;99175.56;;;20.81;43.96
10618;BME280;5356;43.526;26.534;2023-04-23T10:09:27;99177.28;;;20.72;44.01
10618;BME280;5356;43.526;26.534;2023-04-23T10:11:57;99172.22;;;20.90;44.05
10618;BME280;5356;43.526;26.534;2023-04-23T10:14:25;99169.56;;;20.84;42.78
10618;BME280;5356;43.526;26.534;2023-04-23T10:16:52;99164.72;;;20.81;43.82
10618;BME280;5356;43.526;26.534;2023-04-23T10:19:22;99165.75;;;20.85;43.61
10618;BME280;5356;43.526;26.534;2023-04-23T10:22:00;99165.88;;;20.99;43.30
10618;BME280;5356;43.526;26.534;2023-04-23T10:24:31;99166.13;;;21.22;43.61
10618;BME280;5356;43.526;26.534;2023-04-23T10:26:59;99164.13;;;21.33;42.56
10618;BME280;5356;43.526;26.534;2023-04-23T10:29:31;99147.97;;;21.22;41.89
10618;BME280;5356;43.526;26.534;2023-04-23T10:32:02;99160.44;;;21.23;42.95
10618;BME280;5356;43.526;26.534;2023-04-23T10:34:30;99158.16;;;21.30;42.55
10618;BME280;5356;43.526;26.534;2023-04-23T10:36:57;99147.81;;;21.38;42.49
10618;BME280;5356;43.526;26.534;2023-04-23T10:39:34;99149.66;;;21.61;42.56
10618;BME280;5356;43.526;26.534;2023-04-23T10:42:01;99152.50;;;21.70;42.35
10618;BME280;5356;43.526;26.534;2023-04-23T10:44:37;99146.34;;;21.83;42.23
10618;BME280;5356;43.526;26.534;2023-04-23T10:47:04;99151.00;;;21.96;42.57
10618;BME280;5356;43.526;26.534;2023-04-23T10:49:33;99139.06;;;21.97;40.33
10618;BME280;5356;43.526;26.534;2023-04-23T10:52:02;99140.03;;;21.88;41.75
10618;BME280;5356;43.526;26.534;2023-04-23T10:54:32;99135.75;;;22.01;41.73
10618;BME280;5356;43.526;26.534;2023-04-23T10:57:00;99127.63;;;22.19;41.59
10618;BME280;5356;43.526;26.534;2023-04-23T10:59:29;99131.84;;;22.26;41.27
10618;BME280;5356;43.526;26.534;2023-04-23T11:02:04;99129.78;;;22.36;41.31
10618;BME280;5356;43.526;26.534;2023-04-23T11:04:32;99128.16;;;22.49;40.74
10618;BME280;5356;43.526;26.534;2023-04-23T11:07:05;99121.84;;;22.68;40.72
10618;BME280;5356;43.526;26.534;2023-04-23T11:09:46;99121.94;;;22.62;41.02
10618;BME280;5356;43.526;26.534;2023-04-23T11:17:13;99117.63;;;22.75;41.55
10618;BME280;5356;43.526;26.534;2023-04-23T11:19:41;99113.91;;;22.71;41.35
10618;BME280;5356;43.526;26.534;2023-04-23T11:22:15;99116.91;;;22.83;40.81
10618;BME280;5356;43.526;26.534;2023-04-23T11:24:44;99114.38;;;22.87;40.19
10618;BME280;5356;43.526;26.534;2023-04-23T11:27:15;99110.16;;;22.81;39.81
10618;BME280;5356;43.526;26.534;2023-04-23T11:29:42;99111.00;;;22.95;40.46
10618;BME280;5356;43.526;26.534;2023-04-23T11:32:09;99107.03;;;23.15;39.94
10618;BME280;5356;43.526;26.534;2023-04-23T11:34:38;99105.53;;;23.23;39.84
10618;BME280;5356;43.526;26.534;2023-04-23T11:37:04;99104.03;;;23.17;39.19
10618;BME280;5356;43.526;26.534;2023-04-23T11:39:30;99097.25;;;23.28;39.16
10618;BME280;5356;43.526;26.534;2023-04-23T11:41:56;99093.66;;;23.19;38.82
10618;BME280;5356;43.526;26.534;2023-04-23T11:44:23;99101.22;;;23.22;38.47
10618;BME280;5356;43.526;26.534;2023-04-23T11:46:49;99094.44;;;23.33;38.74
10618;BME280;5356;43.526;26.534;2023-04-23T11:49:16;99095.66;;;23.27;38.43
10618;BME280;5356;43.526;26.534;2023-04-23T11:51:43;99095.41;;;23.37;38.70
10618;BME280;5356;43.526;26.534;2023-04-23T11:54:09;99088.75;;;23.43;38.24
10618;BME280;5356;43.526;26.534;2023-04-23T11:56:35;99090.16;;;23.41;37.97
10618;BME280;5356;43.526;26.534;2023-04-23T11:59:02;99087.16;;;23.42;37.90
10618;BME280;5356;43.526;26.534;2023-04-23T12:01:45;99083.19;;;23.48;37.63
10618;BME280;5356;43.526;26.534;2023-04-23T12:04:25;99083.28;;;23.57;37.45
10618;BME280;5356;43.526;26.534;2023-04-23T12:06:52;99072.78;;;23.64;37.05
10618;BME280;5356;43.526;26.534;2023-04-23T12:09:20;99072.41;;;23.80;36.95
10618;BME280;5356;43.526;26.534;2023-04-23T12:11:46;99071.50;;;23.84;36.49
10618;BME280;5356;43.526;26.534;2023-04-23T12:14:13;99065.16;;;23.97;36.71
10618;BME280;5356;43.526;26.534;2023-04-23T12:16:41;99060.53;;;23.98;35.40
10618;BME280;5356;43.526;26.534;2023-04-23T12:19:12;99063.38;;;23.93;34.96
10618;BME280;5356;43.526;26.534;2023-04-23T12:21:56;99053.69;;;24.01;35.15
10618;BME280;5356;43.526;26.534;2023-04-23T12:24:30;99053.56;;;24.14;35.26
10618;BME280;5356;43.526;26.534;2023-04-23T12:26:58;99053.22;;;24.38;35.49
10618;BME280;5356;43.526;26.534;2023-04-23T12:29:26;99052.53;;;24.33;35.04
10618;BME280;5356;43.526;26.534;2023-04-23T12:31:57;99053.81;;;24.27;34.73
10618;BME280;5356;43.526;26.534;2023-04-23T12:34:23;99038.75;;;24.29;34.57
10618;BME280;5356;43.526;26.534;2023-04-23T12:36:50;99044.78;;;24.49;34.68
10618;BME280;5356;43.526;26.534;2023-04-23T12:39:32;99022.69;;;24.50;33.95
10618;BME280;5356;43.526;26.534;2023-04-23T12:42:01;99033.06;;;24.48;34.15
10618;BME280;5356;43.526;26.534;2023-04-23T12:44:35;99041.91;;;24.54;34.18
10618;BME280;5356;43.526;26.534;2023-04-23T12:47:04;99033.50;;;24.81;33.99
10618;BME280;5356;43.526;26.534;2023-04-23T12:49:32;99034.09;;;24.70;32.76
10618;BME280;5356;43.526;26.534;2023-04-23T12:51:59;99022.28;;;24.83;33.46
10618;BME280;5356;43.526;26.534;2023-04-23T12:54:26;99020.53;;;24.96;33.07
10618;BME280;5356;43.526;26.534;2023-04-23T12:56:54;99023.59;;;25.03;32.86
10618;BME280;5356;43.526;26.534;2023-04-23T12:59:20;99009.47;;;25.01;31.94
10618;BME280;5356;43.526;26.534;2023-04-23T13:01:45;99012.03;;;25.06;32.40
10618;BME280;5356;43.526;26.534;2023-04-23T13:04:11;99012.34;;;24.96;32.27
10618;BME280;5356;43.526;26.534;2023-04-23T13:06:37;99007.22;;;24.94;32.02